sensor_id;sensor_type;location;lat;lon;timestamp;temperature;humidity
77056;SHT30;67471;44.918;8.614;2023-04-08T00:00:56;10.27;81.97
77056;SHT30;67471;44.918;8.614;2023-04-08T00:03:59;10.37;81.93
77056;SHT30;67471;44.918;8.614;2023-04-08T00:07:03;10.42;81.24
77056;SHT30;67471;44.918;8.614;2023-04-08T00:10:07;10.38;81.28
77056;SHT30;67471;44.918;8.614;2023-04-08T00:13:12;10.27;81.67
77056;SHT30;67471;44.918;8.614;2023-04-08T00:16:17;10.37;81.22
77056;SHT30;67471;44.918;8.614;2023-04-08T00:19:21;10.31;81.86
77056;SHT30;67471;44.918;8.614;2023-04-08T00:22:24;10.36;81.75
77056;SHT30;67471;44.918;8.614;2023-04-08T00:25:29;10.23;81.48
77056;SHT30;67471;44.918;8.614;2023-04-08T00:28:33;10.36;81.16
77056;SHT30;67471;44.918;8.614;2023-04-08T00:31:37;10.40;80.78
77056;SHT30;67471;44.918;8.614;2023-04-08T00:34:41;10.24;80.84
77056;SHT30;67471;44.918;8.614;2023-04-08T00:37:45;10.34;80.22
77056;SHT30;67471;44.918;8.614;2023-04-08T00:40:48;10.44;80.40
77056;SHT30;67471;44.918;8.614;2023-04-08T00:43:53;10.40;80.52
77056;SHT30;67471;44.918;8.614;2023-04-08T00:46:56;10.40;81.21
77056;SHT30;67471;44.918;8.614;2023-04-08T00:50:00;10.38;81.39
77056;SHT30;67471;44.918;8.614;2023-04-08T00:53:04;10.41;81.35
77056;SHT30;67471;44.918;8.614;2023-04-08T00:56:08;10.34;81.55
77056;SHT30;67471;44.918;8.614;2023-04-08T00:59:12;10.21;81.93
77056;SHT30;67471;44.918;8.614;2023-04-08T01:02:25;10.06;82.24
77056;SHT30;67471;44.918;8.614;2023-04-08T01:09:17;10.07;82.15
77056;SHT30;67471;44.918;8.614;2023-04-08T01:12:28;10.06;82.24
77056;SHT30;67471;44.918;8.614;2023-04-08T01:15:35;9.97;82.45
77056;SHT30;67471;44.918;8.614;2023-04-08T01:18:41;9.83;82.71
77056;SHT30;67471;44.918;8.614;2023-04-08T01:21:46;9.86;82.75
77056;SHT30;67471;44.918;8.614;2023-04-08T01:24:58;9.86;82.37
77056;SHT30;67471;44.918;8.614;2023-04-08T01:28:06;9.78;82.85
77056;SHT30;67471;44.918;8.614;2023-04-08T01:31:10;9.85;82.70
77056;SHT30;67471;44.918;8.614;2023-04-08T01:34:15;9.86;82.53
77056;SHT30;67471;44.918;8.614;2023-04-08T01:37:22;9.86;82.45
77056;SHT30;67471;44.918;8.614;2023-04-08T01:40:31;9.85;82.35
77056;SHT30;67471;44.918;8.614;2023-04-08T01:43:38;9.79;82.51
77056;SHT30;67471;44.918;8.614;2023-04-08T01:46:44;9.78;82.31
77056;SHT30;67471;44.918;8.614;2023-04-08T01:49:50;9.79;82.26
77056;SHT30;67471;44.918;8.614;2023-04-08T01:52:55;9.68;82.39
77056;SHT30;67471;44.918;8.614;2023-04-08T01:56:05;9.45;83.53
77056;SHT30;67471;44.918;8.614;2023-04-08T01:59:12;9.27;84.21
77056;SHT30;67471;44.918;8.614;2023-04-08T02:02:19;8.85;85.89
77056;SHT30;67471;44.918;8.614;2023-04-08T02:05:24;9.22;84.15
77056;SHT30;67471;44.918;8.614;2023-04-08T02:08:28;9.31;83.73
77056;SHT30;67471;44.918;8.614;2023-04-08T02:11:32;9.41;83.52
77056;SHT30;67471;44.918;8.614;2023-04-08T02:14:36;9.49;83.00
77056;SHT30;67471;44.918;8.614;2023-04-08T02:17:49;9.51;82.61
77056;SHT30;67471;44.918;8.614;2023-04-08T02:21:03;9.58;82.48
77056;SHT30;67471;44.918;8.614;2023-04-08T02:24:12;9.51;82.85
77056;SHT30;67471;44.918;8.614;2023-04-08T02:27:17;9.68;81.91
77056;SHT30;67471;44.918;8.614;2023-04-08T02:30:24;9.62;82.05
77056;SHT30;67471;44.918;8.614;2023-04-08T02:33:29;9.72;81.67
77056;SHT30;67471;44.918;8.614;2023-04-08T02:36:34;9.69;81.57
77056;SHT30;67471;44.918;8.614;2023-04-08T02:39:40;9.69;81.69
77056;SHT30;67471;44.918;8.614;2023-04-08T02:42:44;9.52;82.07
77056;SHT30;67471;44.918;8.614;2023-04-08T02:45:47;9.56;81.99
77056;SHT30;67471;44.918;8.614;2023-04-08T02:48:52;9.45;82.02
77056;SHT30;67471;44.918;8.614;2023-04-08T02:51:56;9.53;82.19
77056;SHT30;67471;44.918;8.614;2023-04-08T02:55:00;9.62;81.74
77056;SHT30;67471;44.918;8.614;2023-04-08T02:58:04;9.58;81.94
77056;SHT30;67471;44.918;8.614;2023-04-08T03:01:08;9.42;82.11
77056;SHT30;67471;44.918;8.614;2023-04-08T03:04:12;9.43;82.47
77056;SHT30;67471;44.918;8.614;2023-04-08T03:07:16;9.48;82.26
77056;SHT30;67471;44.918;8.614;2023-04-08T03:10:19;9.48;82.33
77056;SHT30;67471;44.918;8.614;2023-04-08T03:13:23;9.39;82.57
77056;SHT30;67471;44.918;8.614;2023-04-08T03:16:28;9.41;82.42
77056;SHT30;67471;44.918;8.614;2023-04-08T03:19:32;9.32;82.62
77056;SHT30;67471;44.918;8.614;2023-04-08T03:22:35;9.36;82.52
77056;SHT30;67471;44.918;8.614;2023-04-08T03:25:39;9.24;82.58
77056;SHT30;67471;44.918;8.614;2023-04-08T03:28:43;9.24;82.77
77056;SHT30;67471;44.918;8.614;2023-04-08T03:31:47;9.27;82.87
77056;SHT30;67471;44.918;8.614;2023-04-08T03:34:51;9.24;82.70
77056;SHT30;67471;44.918;8.614;2023-04-08T03:37:55;9.20;83.01
77056;SHT30;67471;44.918;8.614;2023-04-08T03:40:58;9.20;82.69
77056;SHT30;67471;44.918;8.614;2023-04-08T03:44:02;9.11;82.96
77056;SHT30;67471;44.918;8.614;2023-04-08T03:47:06;9.22;82.76
77056;SHT30;67471;44.918;8.614;2023-04-08T03:50:10;9.14;83.04
77056;SHT30;67471;44.918;8.614;2023-04-08T03:53:13;9.10;83.01
77056;SHT30;67471;44.918;8.614;2023-04-08T03:56:18;9.15;82.39
77056;SHT30;67471;44.918;8.614;2023-04-08T03:59:22;9.22;82.32
77056;SHT30;67471;44.918;8.614;2023-04-08T04:02:25;9.12;82.22
77056;SHT30;67471;44.918;8.614;2023-04-08T04:05:29;9.12;82.24
77056;SHT30;67471;44.918;8.614;2023-04-08T04:08:33;9.04;81.43
77056;SHT30;67471;44.918;8.614;2023-04-08T04:11:37;8.99;80.67
77056;SHT30;67471;44.918;8.614;2023-04-08T04:14:41;8.63;80.99
77056;SHT30;67471;44.918;8.614;2023-04-08T04:17:47;8.67;80.50
77056;SHT30;67471;44.918;8.614;2023-04-08T04:20:50;8.26;80.71
77056;SHT30;67471;44.918;8.614;2023-04-08T04:23:54;8.25;80.09
77056;SHT30;67471;44.918;8.614;2023-04-08T04:26:58;8.02;81.27
77056;SHT30;67471;44.918;8.614;2023-04-08T04:30:02;8.03;81.12
77056;SHT30;67471;44.918;8.614;2023-04-08T04:33:07;7.81;81.62
77056;SHT30;67471;44.918;8.614;2023-04-08T04:36:11;7.82;81.84
77056;SHT30;67471;44.918;8.614;2023-04-08T04:39:14;7.75;81.80
77056;SHT30;67471;44.918;8.614;2023-04-08T04:42:18;7.78;81.90
77056;SHT30;67471;44.918;8.614;2023-04-08T04:45:22;7.67;82.23
77056;SHT30;67471;44.918;8.614;2023-04-08T04:48:26;7.91;81.21
77056;SHT30;67471;44.918;8.614;2023-04-08T04:51:30;7.95;80.72
77056;SHT30;67471;44.918;8.614;2023-04-08T04:54:35;7.82;81.37
77056;SHT30;67471;44.918;8.614;2023-04-08T04:57:39;7.63;81.59
77056;SHT30;67471;44.918;8.614;2023-04-08T05:00:42;7.47;82.01
77056;SHT30;67471;44.918;8.614;2023-04-08T05:03:46;7.50;80.52
77056;SHT30;67471;44.918;8.614;2023-04-08T05:06:51;7.54;81.42
77056;SHT30;67471;44.918;8.614;2023-04-08T05:09:54;7.50;81.11
77056;SHT30;67471;44.918;8.614;2023-04-08T05:12:58;7.66;80.90
77056;SHT30;67471;44.918;8.614;2023-04-08T05:16:02;7.69;80.52
77056;SHT30;67471;44.918;8.614;2023-04-08T05:19:05;7.61;81.11
77056;SHT30;67471;44.918;8.614;2023-04-08T05:22:09;7.59;81.85
77056;SHT30;67471;44.918;8.614;2023-04-08T05:25:13;7.53;81.31
77056;SHT30;67471;44.918;8.614;2023-04-08T05:28:17;7.67;81.06
77056;SHT30;67471;44.918;8.614;2023-04-08T05:31:21;7.70;81.66
77056;SHT30;67471;44.918;8.614;2023-04-08T05:34:24;7.70;82.00
77056;SHT30;67471;44.918;8.614;2023-04-08T05:37:28;7.85;81.76
77056;SHT30;67471;44.918;8.614;2023-04-08T05:40:32;7.92;81.40
77056;SHT30;67471;44.918;8.614;2023-04-08T05:43:36;7.87;81.50
77056;SHT30;67471;44.918;8.614;2023-04-08T05:46:40;7.81;81.75
77056;SHT30;67471;44.918;8.614;2023-04-08T05:49:44;7.75;82.16
77056;SHT30;67471;44.918;8.614;2023-04-08T05:52:48;7.91;82.16
77056;SHT30;67471;44.918;8.614;2023-04-08T05:55:52;8.21;81.21
77056;SHT30;67471;44.918;8.614;2023-04-08T05:58:55;8.39;80.64
77056;SHT30;67471;44.918;8.614;2023-04-08T06:01:59;8.62;80.01
77056;SHT30;67471;44.918;8.614;2023-04-08T06:05:03;8.80;79.45
77056;SHT30;67471;44.918;8.614;2023-04-08T06:08:07;8.96;79.27
77056;SHT30;67471;44.918;8.614;2023-04-08T06:11:11;9.56;77.43
77056;SHT30;67471;44.918;8.614;2023-04-08T06:14:15;10.14;75.13
77056;SHT30;67471;44.918;8.614;2023-04-08T06:17:18;10.33;73.83
77056;SHT30;67471;44.918;8.614;2023-04-08T06:20:22;10.58;73.33
77056;SHT30;67471;44.918;8.614;2023-04-08T06:23:26;10.85;72.01
77056;SHT30;67471;44.918;8.614;2023-04-08T06:26:30;10.99;71.48
77056;SHT30;67471;44.918;8.614;2023-04-08T06:29:34;11.19;71.19
77056;SHT30;67471;44.918;8.614;2023-04-08T06:32:38;11.18;70.72
77056;SHT30;67471;44.918;8.614;2023-04-08T06:35:41;11.81;69.50
77056;SHT30;67471;44.918;8.614;2023-04-08T06:38:45;12.06;68.44
77056;SHT30;67471;44.918;8.614;2023-04-08T06:41:49;11.97;69.14
77056;SHT30;67471;44.918;8.614;2023-04-08T06:45:10;12.18;68.65
77056;SHT30;67471;44.918;8.614;2023-04-08T06:48:13;11.88;68.36
77056;SHT30;67471;44.918;8.614;2023-04-08T06:51:17;11.85;69.22
77056;SHT30;67471;44.918;8.614;2023-04-08T06:54:21;12.12;68.51
77056;SHT30;67471;44.918;8.614;2023-04-08T06:57:25;12.66;67.27
77056;SHT30;67471;44.918;8.614;2023-04-08T07:00:29;13.61;64.28
77056;SHT30;67471;44.918;8.614;2023-04-08T07:03:34;13.69;63.84
77056;SHT30;67471;44.918;8.614;2023-04-08T07:06:38;13.78;63.45
77056;SHT30;67471;44.918;8.614;2023-04-08T07:09:41;13.63;64.55
77056;SHT30;67471;44.918;8.614;2023-04-08T07:12:48;14.05;63.45
77056;SHT30;67471;44.918;8.614;2023-04-08T07:15:52;14.31;62.50
77056;SHT30;67471;44.918;8.614;2023-04-08T07:18:56;14.48;61.67
77056;SHT30;67471;44.918;8.614;2023-04-08T07:22:00;15.93;58.28
77056;SHT30;67471;44.918;8.614;2023-04-08T07:25:05;16.19;57.73
77056;SHT30;67471;44.918;8.614;2023-04-08T07:28:09;15.40;59.67
77056;SHT30;67471;44.918;8.614;2023-04-08T07:31:14;14.91;61.33
77056;SHT30;67471;44.918;8.614;2023-04-08T07:34:19;14.10;63.70
77056;SHT30;67471;44.918;8.614;2023-04-08T07:37:23;13.80;64.42
77056;SHT30;67471;44.918;8.614;2023-04-08T07:40:27;13.40;65.49
77056;SHT30;67471;44.918;8.614;2023-04-08T07:43:32;13.08;66.65
77056;SHT30;67471;44.918;8.614;2023-04-08T07:46:37;12.89;67.71
77056;SHT30;67471;44.918;8.614;2023-04-08T07:49:41;12.83;68.49
77056;SHT30;67471;44.918;8.614;2023-04-08T07:52:45;12.62;69.13
77056;SHT30;67471;44.918;8.614;2023-04-08T07:55:49;12.45;69.45
77056;SHT30;67471;44.918;8.614;2023-04-08T07:58:53;12.42;69.45
77056;SHT30;67471;44.918;8.614;2023-04-08T08:01:57;13.20;67.33
77056;SHT30;67471;44.918;8.614;2023-04-08T08:05:00;14.00;65.48
77056;SHT30;67471;44.918;8.614;2023-04-08T08:08:06;14.44;63.80
77056;SHT30;67471;44.918;8.614;2023-04-08T08:11:10;14.85;63.54
77056;SHT30;67471;44.918;8.614;2023-04-08T08:14:14;15.96;60.29
77056;SHT30;67471;44.918;8.614;2023-04-08T08:17:18;16.65;57.46
77056;SHT30;67471;44.918;8.614;2023-04-08T08:20:21;17.17;56.17
77056;SHT30;67471;44.918;8.614;2023-04-08T08:23:25;17.67;54.95
77056;SHT30;67471;44.918;8.614;2023-04-08T08:26:29;17.85;54.62
77056;SHT30;67471;44.918;8.614;2023-04-08T08:29:34;18.33;52.74
77056;SHT30;67471;44.918;8.614;2023-04-08T08:32:37;18.47;52.77
77056;SHT30;67471;44.918;8.614;2023-04-08T08:35:41;18.58;52.83
77056;SHT30;67471;44.918;8.614;2023-04-08T08:38:45;18.72;52.04
77056;SHT30;67471;44.918;8.614;2023-04-08T08:41:49;19.08;50.53
77056;SHT30;67471;44.918;8.614;2023-04-08T08:44:56;18.61;50.72
77056;SHT30;67471;44.918;8.614;2023-04-08T08:48:00;18.85;49.22
77056;SHT30;67471;44.918;8.614;2023-04-08T08:51:12;19.04;48.91
77056;SHT30;67471;44.918;8.614;2023-04-08T08:54:16;19.46;49.70
77056;SHT30;67471;44.918;8.614;2023-04-08T08:57:20;19.66;49.36
77056;SHT30;67471;44.918;8.614;2023-04-08T09:00:31;19.42;49.24
77056;SHT30;67471;44.918;8.614;2023-04-08T09:03:35;19.38;48.81
77056;SHT30;67471;44.918;8.614;2023-04-08T09:06:39;18.89;50.14
77056;SHT30;67471;44.918;8.614;2023-04-08T09:09:50;19.30;49.94
77056;SHT30;67471;44.918;8.614;2023-04-08T09:12:54;19.90;48.49
77056;SHT30;67471;44.918;8.614;2023-04-08T09:16:09;20.22;46.64
77056;SHT30;67471;44.918;8.614;2023-04-08T09:19:13;20.21;45.37
77056;SHT30;67471;44.918;8.614;2023-04-08T09:22:17;20.22;46.23
77056;SHT30;67471;44.918;8.614;2023-04-08T09:25:22;20.10;45.28
77056;SHT30;67471;44.918;8.614;2023-04-08T09:28:26;19.84;44.34
77056;SHT30;67471;44.918;8.614;2023-04-08T09:31:33;19.70;46.02
77056;SHT30;67471;44.918;8.614;2023-04-08T09:34:36;20.04;44.75
77056;SHT30;67471;44.918;8.614;2023-04-08T09:37:40;20.06;44.56
77056;SHT30;67471;44.918;8.614;2023-04-08T09:40:44;20.32;44.40
77056;SHT30;67471;44.918;8.614;2023-04-08T09:43:55;20.61;45.06
77056;SHT30;67471;44.918;8.614;2023-04-08T09:47:14;20.76;44.03
77056;SHT30;67471;44.918;8.614;2023-04-08T09:50:25;20.71;44.04
77056;SHT30;67471;44.918;8.614;2023-04-08T09:53:34;20.66;43.36
77056;SHT30;67471;44.918;8.614;2023-04-08T09:57:08;20.56;43.33
77056;SHT30;67471;44.918;8.614;2023-04-08T10:00:14;20.59;44.05
77056;SHT30;67471;44.918;8.614;2023-04-08T10:03:32;20.21;42.23
77056;SHT30;67471;44.918;8.614;2023-04-08T10:06:39;19.71;43.67
77056;SHT30;67471;44.918;8.614;2023-04-08T10:09:43;19.98;43.70
77056;SHT30;67471;44.918;8.614;2023-04-08T10:12:48;20.03;44.23
77056;SHT30;67471;44.918;8.614;2023-04-08T10:16:21;20.03;43.43
77056;SHT30;67471;44.918;8.614;2023-04-08T10:19:38;20.44;43.49
77056;SHT30;67471;44.918;8.614;2023-04-08T10:22:45;20.76;42.65
77056;SHT30;67471;44.918;8.614;2023-04-08T10:25:49;20.83;42.54
77056;SHT30;67471;44.918;8.614;2023-04-08T10:28:53;20.83;42.72
77056;SHT30;67471;44.918;8.614;2023-04-08T10:31:57;20.80;43.21
77056;SHT30;67471;44.918;8.614;2023-04-08T10:35:01;20.88;41.62
77056;SHT30;67471;44.918;8.614;2023-04-08T10:38:05;20.82;40.53
77056;SHT30;67471;44.918;8.614;2023-04-08T10:41:10;20.65;40.71
77056;SHT30;67471;44.918;8.614;2023-04-08T10:44:34;20.95;40.74
77056;SHT30;67471;44.918;8.614;2023-04-08T10:47:38;21.16;41.53
77056;SHT30;67471;44.918;8.614;2023-04-08T10:50:43;21.28;42.07
77056;SHT30;67471;44.918;8.614;2023-04-08T10:53:47;21.11;42.72
77056;SHT30;67471;44.918;8.614;2023-04-08T10:56:52;21.20;41.77
77056;SHT30;67471;44.918;8.614;2023-04-08T10:59:57;21.22;42.60
77056;SHT30;67471;44.918;8.614;2023-04-08T11:03:02;20.99;41.77
77056;SHT30;67471;44.918;8.614;2023-04-08T11:06:06;20.76;41.55
77056;SHT30;67471;44.918;8.614;2023-04-08T11:09:11;21.00;39.95
77056;SHT30;67471;44.918;8.614;2023-04-08T11:12:15;21.22;39.79
77056;SHT30;67471;44.918;8.614;2023-04-08T11:15:23;20.75;39.60
77056;SHT30;67471;44.918;8.614;2023-04-08T11:18:26;19.40;42.33
77056;SHT30;67471;44.918;8.614;2023-04-08T11:21:31;20.11;41.85
77056;SHT30;67471;44.918;8.614;2023-04-08T11:24:37;20.65;40.14
77056;SHT30;67471;44.918;8.614;2023-04-08T11:27:42;20.90;39.99
77056;SHT30;67471;44.918;8.614;2023-04-08T11:30:46;20.88;39.33
77056;SHT30;67471;44.918;8.614;2023-04-08T11:33:53;20.96;38.95
77056;SHT30;67471;44.918;8.614;2023-04-08T11:36:58;20.62;39.69
77056;SHT30;67471;44.918;8.614;2023-04-08T11:40:08;20.90;40.63
77056;SHT30;67471;44.918;8.614;2023-04-08T11:43:12;20.85;40.47
77056;SHT30;67471;44.918;8.614;2023-04-08T11:46:19;20.85;40.14
77056;SHT30;67471;44.918;8.614;2023-04-08T11:49:23;20.89;40.69
77056;SHT30;67471;44.918;8.614;2023-04-08T11:52:48;20.21;41.95
77056;SHT30;67471;44.918;8.614;2023-04-08T11:55:52;20.25;41.45
77056;SHT30;67471;44.918;8.614;2023-04-08T11:58:56;20.42;42.57
77056;SHT30;67471;44.918;8.614;2023-04-08T12:02:00;19.55;41.52
77056;SHT30;67471;44.918;8.614;2023-04-08T12:05:05;19.02;43.97
77056;SHT30;67471;44.918;8.614;2023-04-08T12:08:08;19.42;41.71
77056;SHT30;67471;44.918;8.614;2023-04-08T12:11:12;20.00;40.52
77056;SHT30;67471;44.918;8.614;2023-04-08T12:14:18;19.52;39.98
77056;SHT30;67471;44.918;8.614;2023-04-08T12:17:24;19.90;40.61
77056;SHT30;67471;44.918;8.614;2023-04-08T12:20:28;20.24;39.60
77056;SHT30;67471;44.918;8.614;2023-04-08T12:23:32;20.41;38.42
77056;SHT30;67471;44.918;8.614;2023-04-08T12:26:36;20.29;38.07
77056;SHT30;67471;44.918;8.614;2023-04-08T12:29:40;20.35;37.83
77056;SHT30;67471;44.918;8.614;2023-04-08T12:32:44;20.34;36.84
77056;SHT30;67471;44.918;8.614;2023-04-08T12:35:50;20.35;35.75
77056;SHT30;67471;44.918;8.614;2023-04-08T12:38:54;20.41;34.97
77056;SHT30;67471;44.918;8.614;2023-04-08T12:41:58;20.11;34.90
77056;SHT30;67471;44.918;8.614;2023-04-08T12:45:02;20.39;34.37
77056;SHT30;67471;44.918;8.614;2023-04-08T12:48:05;20.44;35.72
77056;SHT30;67471;44.918;8.614;2023-04-08T12:51:09;20.51;35.73
77056;SHT30;67471;44.918;8.614;2023-04-08T12:54:14;20.28;36.15
77056;SHT30;67471;44.918;8.614;2023-04-08T12:57:18;20.48;35.84
77056;SHT30;67471;44.918;8.614;2023-04-08T13:00:22;20.47;35.90
77056;SHT30;67471;44.918;8.614;2023-04-08T13:03:25;20.47;34.62
77056;SHT30;67471;44.918;8.614;2023-04-08T13:06:32;20.59;34.35
77056;SHT30;67471;44.918;8.614;2023-04-08T13:09:36;20.39;33.79
77056;SHT30;67471;44.918;8.614;2023-04-08T13:12:40;20.01;35.01
77056;SHT30;67471;44.918;8.614;2023-04-08T13:15:44;20.18;35.44
77056;SHT30;67471;44.918;8.614;2023-04-08T13:18:48;20.53;34.94
77056;SHT30;67471;44.918;8.614;2023-04-08T13:21:52;20.51;33.58
77056;SHT30;67471;44.918;8.614;2023-04-08T13:24:56;20.37;33.16
77056;SHT30;67471;44.918;8.614;2023-04-08T13:27:59;20.20;32.85
77056;SHT30;67471;44.918;8.614;2023-04-08T13:31:03;19.81;32.26
77056;SHT30;67471;44.918;8.614;2023-04-08T13:34:07;19.32;34.34
77056;SHT30;67471;44.918;8.614;2023-04-08T13:37:11;19.93;33.73
77056;SHT30;67471;44.918;8.614;2023-04-08T13:40:15;20.24;33.16
77056;SHT30;67471;44.918;8.614;2023-04-08T13:43:19;20.59;32.10
77056;SHT30;67471;44.918;8.614;2023-04-08T13:46:22;20.82;32.15
77056;SHT30;67471;44.918;8.614;2023-04-08T13:49:26;20.99;31.81
77056;SHT30;67471;44.918;8.614;2023-04-08T13:52:30;21.36;31.16
77056;SHT30;67471;44.918;8.614;2023-04-08T13:55:34;21.53;30.33
77056;SHT30;67471;44.918;8.614;2023-04-08T13:58:38;21.40;30.18
77056;SHT30;67471;44.918;8.614;2023-04-08T14:01:42;21.06;30.56
77056;SHT30;67471;44.918;8.614;2023-04-08T14:04:46;21.33;31.44
77056;SHT30;67471;44.918;8.614;2023-04-08T14:07:49;21.50;31.87
77056;SHT30;67471;44.918;8.614;2023-04-08T14:10:56;21.67;32.42
77056;SHT30;67471;44.918;8.614;2023-04-08T14:14:00;21.14;33.62
77056;SHT30;67471;44.918;8.614;2023-04-08T14:17:04;20.90;33.56
77056;SHT30;67471;44.918;8.614;2023-04-08T14:20:08;20.68;33.57
77056;SHT30;67471;44.918;8.614;2023-04-08T14:23:12;21.06;33.90
77056;SHT30;67471;44.918;8.614;2023-04-08T14:26:16;21.28;32.41
77056;SHT30;67471;44.918;8.614;2023-04-08T14:29:20;21.33;32.41
77056;SHT30;67471;44.918;8.614;2023-04-08T14:32:24;21.43;31.11
77056;SHT30;67471;44.918;8.614;2023-04-08T14:35:28;21.36;31.82
77056;SHT30;67471;44.918;8.614;2023-04-08T14:38:32;21.27;30.29
77056;SHT30;67471;44.918;8.614;2023-04-08T14:41:36;20.41;32.27
77056;SHT30;67471;44.918;8.614;2023-04-08T14:44:40;20.56;32.05
77056;SHT30;67471;44.918;8.614;2023-04-08T14:47:44;20.83;32.04
77056;SHT30;67471;44.918;8.614;2023-04-08T14:50:48;20.66;32.94
77056;SHT30;67471;44.918;8.614;2023-04-08T14:53:52;20.79;32.18
77056;SHT30;67471;44.918;8.614;2023-04-08T14:56:56;20.52;32.68
77056;SHT30;67471;44.918;8.614;2023-04-08T15:00:00;20.90;32.78
77056;SHT30;67471;44.918;8.614;2023-04-08T15:03:04;21.07;32.59
77056;SHT30;67471;44.918;8.614;2023-04-08T15:06:11;20.35;32.99
77056;SHT30;67471;44.918;8.614;2023-04-08T15:09:19;20.61;32.16
77056;SHT30;67471;44.918;8.614;2023-04-08T15:12:24;20.35;31.75
77056;SHT30;67471;44.918;8.614;2023-04-08T15:15:29;20.59;32.05
77056;SHT30;67471;44.918;8.614;2023-04-08T15:18:32;20.51;30.21
77056;SHT30;67471;44.918;8.614;2023-04-08T15:21:36;20.04;30.85
77056;SHT30;67471;44.918;8.614;2023-04-08T15:24:40;20.11;29.82
77056;SHT30;67471;44.918;8.614;2023-04-08T15:27:44;20.48;29.81
77056;SHT30;67471;44.918;8.614;2023-04-08T15:30:49;20.86;30.10
77056;SHT30;67471;44.918;8.614;2023-04-08T15:33:52;20.99;28.74
77056;SHT30;67471;44.918;8.614;2023-04-08T15:36:56;19.81;28.01
77056;SHT30;67471;44.918;8.614;2023-04-08T15:40:01;20.20;29.84
77056;SHT30;67471;44.918;8.614;2023-04-08T15:43:05;20.35;28.77
77056;SHT30;67471;44.918;8.614;2023-04-08T15:46:09;20.44;28.70
77056;SHT30;67471;44.918;8.614;2023-04-08T15:49:13;20.34;29.64
77056;SHT30;67471;44.918;8.614;2023-04-08T15:52:17;20.28;28.68
77056;SHT30;67471;44.918;8.614;2023-04-08T15:55:22;20.25;29.11
77056;SHT30;67471;44.918;8.614;2023-04-08T15:58:26;19.91;30.28
77056;SHT30;67471;44.918;8.614;2023-04-08T16:01:29;20.22;30.74
77056;SHT30;67471;44.918;8.614;2023-04-08T16:04:33;20.21;30.94
77056;SHT30;67471;44.918;8.614;2023-04-08T16:07:37;20.51;29.32
77056;SHT30;67471;44.918;8.614;2023-04-08T16:10:41;20.41;29.20
77056;SHT30;67471;44.918;8.614;2023-04-08T16:13:45;20.38;29.46
77056;SHT30;67471;44.918;8.614;2023-04-08T16:16:49;20.07;29.66
77056;SHT30;67471;44.918;8.614;2023-04-08T16:19:53;20.13;30.34
77056;SHT30;67471;44.918;8.614;2023-04-08T16:22:57;20.06;29.40
77056;SHT30;67471;44.918;8.614;2023-04-08T16:26:01;19.86;30.06
77056;SHT30;67471;44.918;8.614;2023-04-08T16:29:05;19.38;30.54
77056;SHT30;67471;44.918;8.614;2023-04-08T16:32:09;19.09;31.43
77056;SHT30;67471;44.918;8.614;2023-04-08T16:35:13;19.15;31.95
77056;SHT30;67471;44.918;8.614;2023-04-08T16:38:17;19.45;30.41
77056;SHT30;67471;44.918;8.614;2023-04-08T16:41:21;19.50;30.17
77056;SHT30;67471;44.918;8.614;2023-04-08T16:44:25;19.50;32.12
77056;SHT30;67471;44.918;8.614;2023-04-08T16:47:29;19.49;33.12
77056;SHT30;67471;44.918;8.614;2023-04-08T16:50:33;19.53;32.07
77056;SHT30;67471;44.918;8.614;2023-04-08T16:53:37;19.56;32.27
77056;SHT30;67471;44.918;8.614;2023-04-08T16:56:40;19.46;31.11
77056;SHT30;67471;44.918;8.614;2023-04-08T16:59:47;19.42;32.18
77056;SHT30;67471;44.918;8.614;2023-04-08T17:02:51;19.49;31.69
77056;SHT30;67471;44.918;8.614;2023-04-08T17:06:07;19.12;32.23
77056;SHT30;67471;44.918;8.614;2023-04-08T17:09:11;19.28;32.24
77056;SHT30;67471;44.918;8.614;2023-04-08T17:12:15;19.19;32.83
77056;SHT30;67471;44.918;8.614;2023-04-08T17:15:19;18.88;32.39
77056;SHT30;67471;44.918;8.614;2023-04-08T17:18:23;18.81;32.72
77056;SHT30;67471;44.918;8.614;2023-04-08T17:21:26;18.78;33.53
77056;SHT30;67471;44.918;8.614;2023-04-08T17:24:31;18.85;33.88
77056;SHT30;67471;44.918;8.614;2023-04-08T17:27:35;18.72;33.76
77056;SHT30;67471;44.918;8.614;2023-04-08T17:30:38;18.74;33.75
77056;SHT30;67471;44.918;8.614;2023-04-08T17:33:42;18.72;34.16
77056;SHT30;67471;44.918;8.614;2023-04-08T17:36:46;18.63;34.67
77056;SHT30;67471;44.918;8.614;2023-04-08T17:39:50;18.54;34.85
77056;SHT30;67471;44.918;8.614;2023-04-08T17:42:54;18.43;35.09
77056;SHT30;67471;44.918;8.614;2023-04-08T17:46:00;18.25;35.10
77056;SHT30;67471;44.918;8.614;2023-04-08T17:49:04;18.13;35.50
77056;SHT30;67471;44.918;8.614;2023-04-08T17:52:08;18.08;35.60
77056;SHT30;67471;44.918;8.614;2023-04-08T17:55:15;17.99;35.81
77056;SHT30;67471;44.918;8.614;2023-04-08T17:58:19;18.06;35.89
77056;SHT30;67471;44.918;8.614;2023-04-08T18:01:23;17.90;36.22
77056;SHT30;67471;44.918;8.614;2023-04-08T18:04:26;17.77;36.57
77056;SHT30;67471;44.918;8.614;2023-04-08T18:07:32;17.68;36.58
77056;SHT30;67471;44.918;8.614;2023-04-08T18:10:36;17.55;36.92
77056;SHT30;67471;44.918;8.614;2023-04-08T18:13:40;17.59;37.19
77056;SHT30;67471;44.918;8.614;2023-04-08T18:16:44;17.47;37.18
77056;SHT30;67471;44.918;8.614;2023-04-08T18:19:48;17.51;37.39
77056;SHT30;67471;44.918;8.614;2023-04-08T18:22:52;17.44;37.29
77056;SHT30;67471;44.918;8.614;2023-04-08T18:25:55;17.37;37.84
77056;SHT30;67471;44.918;8.614;2023-04-08T18:28:59;17.45;37.97
77056;SHT30;67471;44.918;8.614;2023-04-08T18:32:03;17.35;38.70
77056;SHT30;67471;44.918;8.614;2023-04-08T18:35:08;17.23;39.47
77056;SHT30;67471;44.918;8.614;2023-04-08T18:38:11;17.07;40.79
77056;SHT30;67471;44.918;8.614;2023-04-08T18:41:16;17.06;41.41
77056;SHT30;67471;44.918;8.614;2023-04-08T18:44:20;17.00;42.23
77056;SHT30;67471;44.918;8.614;2023-04-08T18:47:24;16.84;42.66
77056;SHT30;67471;44.918;8.614;2023-04-08T18:50:27;16.79;42.82
77056;SHT30;67471;44.918;8.614;2023-04-08T18:53:31;16.83;43.20
77056;SHT30;67471;44.918;8.614;2023-04-08T18:56:35;16.84;43.76
77056;SHT30;67471;44.918;8.614;2023-04-08T18:59:39;17.02;43.74
77056;SHT30;67471;44.918;8.614;2023-04-08T19:02:42;17.17;43.91
77056;SHT30;67471;44.918;8.614;2023-04-08T19:05:46;17.09;44.44
77056;SHT30;67471;44.918;8.614;2023-04-08T19:08:50;17.13;44.52
77056;SHT30;67471;44.918;8.614;2023-04-08T19:11:54;16.81;45.21
77056;SHT30;67471;44.918;8.614;2023-04-08T19:14:58;16.73;45.61
77056;SHT30;67471;44.918;8.614;2023-04-08T19:18:02;16.66;46.08
77056;SHT30;67471;44.918;8.614;2023-04-08T19:21:06;16.51;46.47
77056;SHT30;67471;44.918;8.614;2023-04-08T19:24:10;16.55;46.58
77056;SHT30;67471;44.918;8.614;2023-04-08T19:27:14;16.52;46.75
77056;SHT30;67471;44.918;8.614;2023-04-08T19:30:18;16.70;46.71
77056;SHT30;67471;44.918;8.614;2023-04-08T19:33:22;16.63;47.23
77056;SHT30;67471;44.918;8.614;2023-04-08T19:36:26;16.35;48.31